sensor_id;sensor_type;location;lat;lon;timestamp;P1;durP1;ratioP1;P2;durP2;ratioP2
12385;SDS011;6257;57.634;18.310;2023-02-01T00:02:18;5.33;;;1.70;;
12385;SDS011;6257;57.634;18.310;2023-02-01T00:04:45;3.53;;;1.67;;
12385;SDS011;6257;57.634;18.310;2023-02-01T00:07:12;4.23;;;1.63;;
12385;SDS011;6257;57.634;18.310;2023-02-01T00:09:39;3.57;;;1.70;;
12385;SDS011;6257;57.634;18.310;2023-02-01T00:12:06;2.60;;;1.60;;
12385;SDS011;6257;57.634;18.310;2023-02-01T00:14:33;3.30;;;1.77;;
12385;SDS011;6257;57.634;18.310;2023-02-01T00:17:03;2.13;;;1.73;;
12385;SDS011;6257;57.634;18.310;2023-02-01T00:19:32;3.23;;;1.47;;
12385;SDS011;6257;57.634;18.310;2023-02-01T00:22:00;3.73;;;1.83;;
12385;SDS011;6257;57.634;18.310;2023-02-01T00:24:27;3.50;;;1.93;;
12385;SDS011;6257;57.634;18.310;2023-02-01T00:26:54;2.77;;;2.07;;
12385;SDS011;6257;57.634;18.310;2023-02-01T00:29:21;4.43;;;2.13;;
12385;SDS011;6257;57.634;18.310;2023-02-01T00:31:49;4.77;;;2.20;;
12385;SDS011;6257;57.634;18.310;2023-02-01T00:34:17;5.53;;;2.80;;
12385;SDS011;6257;57.634;18.310;2023-02-01T00:36:46;6.40;;;2.50;;
12385;SDS011;6257;57.634;18.310;2023-02-01T00:39:14;7.73;;;2.87;;
12385;SDS011;6257;57.634;18.310;2023-02-01T00:41:41;6.67;;;2.97;;
12385;SDS011;6257;57.634;18.310;2023-02-01T00:44:08;5.67;;;2.60;;
12385;SDS011;6257;57.634;18.310;2023-02-01T00:46:36;7.53;;;2.90;;
12385;SDS011;6257;57.634;18.310;2023-02-01T00:49:03;7.37;;;2.40;;
12385;SDS011;6257;57.634;18.310;2023-02-01T00:51:30;4.57;;;2.33;;
12385;SDS011;6257;57.634;18.310;2023-02-01T00:53:59;5.80;;;2.97;;
12385;SDS011;6257;57.634;18.310;2023-02-01T00:56:26;5.03;;;2.57;;
12385;SDS011;6257;57.634;18.310;2023-02-01T00:58:53;7.87;;;2.53;;
12385;SDS011;6257;57.634;18.310;2023-02-01T01:01:21;6.30;;;2.57;;
12385;SDS011;6257;57.634;18.310;2023-02-01T01:03:51;5.03;;;2.80;;
12385;SDS011;6257;57.634;18.310;2023-02-01T01:06:20;5.43;;;2.20;;
12385;SDS011;6257;57.634;18.310;2023-02-01T01:08:50;3.43;;;2.43;;
12385;SDS011;6257;57.634;18.310;2023-02-01T01:11:20;4.10;;;2.30;;
12385;SDS011;6257;57.634;18.310;2023-02-01T01:13:48;6.20;;;2.40;;
12385;SDS011;6257;57.634;18.310;2023-02-01T01:16:17;5.63;;;2.50;;
12385;SDS011;6257;57.634;18.310;2023-02-01T01:18:45;5.33;;;2.77;;
12385;SDS011;6257;57.634;18.310;2023-02-01T01:21:13;4.97;;;2.00;;
12385;SDS011;6257;57.634;18.310;2023-02-01T01:23:41;5.80;;;2.90;;
12385;SDS011;6257;57.634;18.310;2023-02-01T01:26:10;5.47;;;2.47;;
12385;SDS011;6257;57.634;18.310;2023-02-01T01:28:41;6.17;;;2.20;;
12385;SDS011;6257;57.634;18.310;2023-02-01T01:31:09;3.70;;;2.10;;
12385;SDS011;6257;57.634;18.310;2023-02-01T01:33:36;3.33;;;2.27;;
12385;SDS011;6257;57.634;18.310;2023-02-01T01:36:04;4.60;;;2.27;;
12385;SDS011;6257;57.634;18.310;2023-02-01T01:38:32;2.60;;;1.90;;
12385;SDS011;6257;57.634;18.310;2023-02-01T01:40:59;5.17;;;2.40;;
12385;SDS011;6257;57.634;18.310;2023-02-01T01:46:17;3.50;;;2.17;;
12385;SDS011;6257;57.634;18.310;2023-02-01T01:48:47;3.03;;;2.00;;
12385;SDS011;6257;57.634;18.310;2023-02-01T01:51:17;3.10;;;1.93;;
12385;SDS011;6257;57.634;18.310;2023-02-01T01:53:48;5.67;;;2.20;;
12385;SDS011;6257;57.634;18.310;2023-02-01T01:56:20;4.43;;;1.97;;
12385;SDS011;6257;57.634;18.310;2023-02-01T01:58:47;3.93;;;2.10;;
12385;SDS011;6257;57.634;18.310;2023-02-01T02:01:16;3.30;;;1.63;;
12385;SDS011;6257;57.634;18.310;2023-02-01T02:03:43;2.47;;;1.37;;
12385;SDS011;6257;57.634;18.310;2023-02-01T02:06:15;4.70;;;1.70;;
12385;SDS011;6257;57.634;18.310;2023-02-01T02:08:46;3.67;;;1.30;;
12385;SDS011;6257;57.634;18.310;2023-02-01T02:11:14;1.70;;;1.13;;
12385;SDS011;6257;57.634;18.310;2023-02-01T02:13:44;4.73;;;1.30;;
12385;SDS011;6257;57.634;18.310;2023-02-01T02:16:19;3.47;;;2.30;;
12385;SDS011;6257;57.634;18.310;2023-02-01T02:18:56;4.50;;;1.30;;
12385;SDS011;6257;57.634;18.310;2023-02-01T02:21:42;4.20;;;1.17;;
12385;SDS011;6257;57.634;18.310;2023-02-01T02:24:34;3.40;;;1.10;;
12385;SDS011;6257;57.634;18.310;2023-02-01T02:27:20;2.67;;;0.70;;
12385;SDS011;6257;57.634;18.310;2023-02-01T02:30:04;1.93;;;0.70;;
12385;SDS011;6257;57.634;18.310;2023-02-01T02:36:06;1.03;;;0.73;;
12385;SDS011;6257;57.634;18.310;2023-02-01T02:38:38;3.50;;;0.70;;
12385;SDS011;6257;57.634;18.310;2023-02-01T02:41:13;2.23;;;0.80;;
12385;SDS011;6257;57.634;18.310;2023-02-01T02:44:08;3.53;;;0.73;;
12385;SDS011;6257;57.634;18.310;2023-02-01T02:46:56;3.73;;;1.00;;
12385;SDS011;6257;57.634;18.310;2023-02-01T02:49:49;1.73;;;0.90;;
12385;SDS011;6257;57.634;18.310;2023-02-01T02:52:35;1.90;;;0.90;;
12385;SDS011;6257;57.634;18.310;2023-02-01T02:55:24;3.37;;;0.93;;
12385;SDS011;6257;57.634;18.310;2023-02-01T02:57:53;1.07;;;0.80;;
12385;SDS011;6257;57.634;18.310;2023-02-01T03:00:38;2.23;;;0.67;;
12385;SDS011;6257;57.634;18.310;2023-02-01T03:03:23;1.20;;;1.00;;
12385;SDS011;6257;57.634;18.310;2023-02-01T03:06:12;3.67;;;0.90;;
12385;SDS011;6257;57.634;18.310;2023-02-01T03:08:41;5.30;;;1.00;;
12385;SDS011;6257;57.634;18.310;2023-02-01T03:11:10;2.90;;;1.00;;
12385;SDS011;6257;57.634;18.310;2023-02-01T03:13:40;0.83;;;0.70;;
12385;SDS011;6257;57.634;18.310;2023-02-01T03:16:11;4.60;;;0.90;;
12385;SDS011;6257;57.634;18.310;2023-02-01T03:18:43;3.53;;;0.83;;
12385;SDS011;6257;57.634;18.310;2023-02-01T03:21:17;1.80;;;0.67;;
12385;SDS011;6257;57.634;18.310;2023-02-01T03:23:50;2.90;;;0.70;;
12385;SDS011;6257;57.634;18.310;2023-02-01T03:26:21;2.47;;;0.70;;
12385;SDS011;6257;57.634;18.310;2023-02-01T03:28:52;2.33;;;0.70;;
12385;SDS011;6257;57.634;18.310;2023-02-01T03:31:23;1.67;;;0.60;;
12385;SDS011;6257;57.634;18.310;2023-02-01T03:33:50;2.60;;;0.70;;
12385;SDS011;6257;57.634;18.310;2023-02-01T03:36:20;2.80;;;0.60;;
12385;SDS011;6257;57.634;18.310;2023-02-01T03:38:55;2.87;;;0.80;;
12385;SDS011;6257;57.634;18.310;2023-02-01T03:41:27;3.23;;;0.60;;
12385;SDS011;6257;57.634;18.310;2023-02-01T03:44:01;2.90;;;0.50;;
12385;SDS011;6257;57.634;18.310;2023-02-01T03:46:35;1.70;;;0.70;;
12385;SDS011;6257;57.634;18.310;2023-02-01T03:49:07;3.30;;;0.77;;
12385;SDS011;6257;57.634;18.310;2023-02-01T03:51:39;2.13;;;0.67;;
12385;SDS011;6257;57.634;18.310;2023-02-01T03:54:08;0.67;;;0.60;;
12385;SDS011;6257;57.634;18.310;2023-02-01T03:56:40;2.60;;;0.80;;
12385;SDS011;6257;57.634;18.310;2023-02-01T03:59:10;3.53;;;0.67;;
12385;SDS011;6257;57.634;18.310;2023-02-01T04:01:38;1.97;;;0.77;;
12385;SDS011;6257;57.634;18.310;2023-02-01T04:04:06;2.00;;;0.43;;
12385;SDS011;6257;57.634;18.310;2023-02-01T04:06:34;2.37;;;0.80;;
12385;SDS011;6257;57.634;18.310;2023-02-01T04:09:02;3.77;;;0.60;;
12385;SDS011;6257;57.634;18.310;2023-02-01T04:11:29;0.50;;;0.30;;
12385;SDS011;6257;57.634;18.310;2023-02-01T04:13:56;1.23;;;0.60;;
12385;SDS011;6257;57.634;18.310;2023-02-01T04:16:29;2.23;;;1.10;;
12385;SDS011;6257;57.634;18.310;2023-02-01T04:18:56;3.80;;;1.10;;
12385;SDS011;6257;57.634;18.310;2023-02-01T04:21:23;2.47;;;0.87;;
12385;SDS011;6257;57.634;18.310;2023-02-01T04:23:51;3.23;;;0.83;;
12385;SDS011;6257;57.634;18.310;2023-02-01T04:26:19;3.27;;;0.97;;
12385;SDS011;6257;57.634;18.310;2023-02-01T04:28:47;1.33;;;0.60;;
12385;SDS011;6257;57.634;18.310;2023-02-01T04:31:14;0.93;;;0.50;;
12385;SDS011;6257;57.634;18.310;2023-02-01T04:33:42;3.37;;;0.70;;
12385;SDS011;6257;57.634;18.310;2023-02-01T04:36:09;2.50;;;0.50;;
12385;SDS011;6257;57.634;18.310;2023-02-01T04:38:36;3.07;;;0.60;;
12385;SDS011;6257;57.634;18.310;2023-02-01T04:41:03;3.90;;;0.60;;
12385;SDS011;6257;57.634;18.310;2023-02-01T04:43:32;2.00;;;0.60;;
12385;SDS011;6257;57.634;18.310;2023-02-01T04:45:59;2.33;;;0.40;;
12385;SDS011;6257;57.634;18.310;2023-02-01T04:48:26;2.50;;;0.70;;
12385;SDS011;6257;57.634;18.310;2023-02-01T04:50:53;2.80;;;0.60;;
12385;SDS011;6257;57.634;18.310;2023-02-01T04:53:21;1.53;;;0.53;;
12385;SDS011;6257;57.634;18.310;2023-02-01T04:55:48;2.13;;;0.60;;
12385;SDS011;6257;57.634;18.310;2023-02-01T04:58:16;2.80;;;0.57;;
12385;SDS011;6257;57.634;18.310;2023-02-01T05:00:44;2.70;;;0.50;;
12385;SDS011;6257;57.634;18.310;2023-02-01T05:03:11;2.30;;;0.60;;
12385;SDS011;6257;57.634;18.310;2023-02-01T05:05:38;3.17;;;0.60;;
12385;SDS011;6257;57.634;18.310;2023-02-01T05:08:05;2.57;;;0.43;;
12385;SDS011;6257;57.634;18.310;2023-02-01T05:10:32;0.77;;;0.50;;
12385;SDS011;6257;57.634;18.310;2023-02-01T05:12:59;2.27;;;0.70;;
12385;SDS011;6257;57.634;18.310;2023-02-01T05:15:45;1.30;;;0.63;;
12385;SDS011;6257;57.634;18.310;2023-02-01T05:18:12;1.13;;;0.60;;
12385;SDS011;6257;57.634;18.310;2023-02-01T05:20:39;1.30;;;0.40;;
12385;SDS011;6257;57.634;18.310;2023-02-01T05:23:06;2.00;;;0.43;;
12385;SDS011;6257;57.634;18.310;2023-02-01T05:25:33;0.50;;;0.40;;
12385;SDS011;6257;57.634;18.310;2023-02-01T05:28:00;1.43;;;0.50;;
12385;SDS011;6257;57.634;18.310;2023-02-01T05:30:27;2.63;;;0.70;;
12385;SDS011;6257;57.634;18.310;2023-02-01T05:32:56;1.53;;;0.40;;
12385;SDS011;6257;57.634;18.310;2023-02-01T05:35:23;1.67;;;0.67;;
12385;SDS011;6257;57.634;18.310;2023-02-01T05:37:50;1.53;;;0.60;;
12385;SDS011;6257;57.634;18.310;2023-02-01T05:40:17;1.27;;;0.70;;
12385;SDS011;6257;57.634;18.310;2023-02-01T05:42:44;0.57;;;0.40;;
12385;SDS011;6257;57.634;18.310;2023-02-01T05:45:11;2.63;;;0.70;;
12385;SDS011;6257;57.634;18.310;2023-02-01T05:47:38;1.50;;;0.50;;
12385;SDS011;6257;57.634;18.310;2023-02-01T05:50:07;0.80;;;0.40;;
12385;SDS011;6257;57.634;18.310;2023-02-01T05:52:35;1.37;;;0.50;;
12385;SDS011;6257;57.634;18.310;2023-02-01T05:55:02;1.07;;;0.43;;
12385;SDS011;6257;57.634;18.310;2023-02-01T05:57:29;2.00;;;0.70;;
12385;SDS011;6257;57.634;18.310;2023-02-01T05:59:57;1.93;;;0.57;;
12385;SDS011;6257;57.634;18.310;2023-02-01T06:02:24;2.23;;;0.80;;
12385;SDS011;6257;57.634;18.310;2023-02-01T06:04:51;2.77;;;1.10;;
12385;SDS011;6257;57.634;18.310;2023-02-01T06:07:19;2.43;;;1.20;;
12385;SDS011;6257;57.634;18.310;2023-02-01T06:09:47;1.50;;;0.60;;
12385;SDS011;6257;57.634;18.310;2023-02-01T06:12:14;1.70;;;0.70;;
12385;SDS011;6257;57.634;18.310;2023-02-01T06:14:41;1.80;;;0.60;;
12385;SDS011;6257;57.634;18.310;2023-02-01T06:17:08;1.23;;;0.70;;
12385;SDS011;6257;57.634;18.310;2023-02-01T06:19:35;1.07;;;0.80;;
12385;SDS011;6257;57.634;18.310;2023-02-01T06:22:02;1.67;;;0.70;;
12385;SDS011;6257;57.634;18.310;2023-02-01T06:24:33;2.27;;;0.90;;
12385;SDS011;6257;57.634;18.310;2023-02-01T06:27:00;1.87;;;0.87;;
12385;SDS011;6257;57.634;18.310;2023-02-01T06:29:27;2.00;;;0.83;;
12385;SDS011;6257;57.634;18.310;2023-02-01T06:31:54;2.07;;;1.67;;
12385;SDS011;6257;57.634;18.310;2023-02-01T06:34:21;2.07;;;0.90;;
12385;SDS011;6257;57.634;18.310;2023-02-01T06:36:49;1.00;;;0.60;;
12385;SDS011;6257;57.634;18.310;2023-02-01T06:39:16;1.07;;;0.57;;
12385;SDS011;6257;57.634;18.310;2023-02-01T06:41:46;1.17;;;0.50;;
12385;SDS011;6257;57.634;18.310;2023-02-01T06:44:14;0.90;;;0.60;;
12385;SDS011;6257;57.634;18.310;2023-02-01T06:46:42;1.10;;;0.40;;
12385;SDS011;6257;57.634;18.310;2023-02-01T06:49:09;0.70;;;0.50;;
12385;SDS011;6257;57.634;18.310;2023-02-01T06:51:36;1.50;;;0.50;;
12385;SDS011;6257;57.634;18.310;2023-02-01T06:54:03;0.70;;;0.50;;
12385;SDS011;6257;57.634;18.310;2023-02-01T06:56:30;1.27;;;0.60;;
12385;SDS011;6257;57.634;18.310;2023-02-01T06:58:58;1.00;;;0.40;;
12385;SDS011;6257;57.634;18.310;2023-02-01T07:01:26;1.60;;;0.50;;
12385;SDS011;6257;57.634;18.310;2023-02-01T07:03:53;1.37;;;0.50;;
12385;SDS011;6257;57.634;18.310;2023-02-01T07:06:20;0.37;;;0.30;;
12385;SDS011;6257;57.634;18.310;2023-02-01T07:08:47;2.30;;;0.80;;
12385;SDS011;6257;57.634;18.310;2023-02-01T07:11:15;1.00;;;0.60;;
12385;SDS011;6257;57.634;18.310;2023-02-01T07:13:43;0.53;;;0.40;;
12385;SDS011;6257;57.634;18.310;2023-02-01T07:16:13;1.13;;;0.80;;
12385;SDS011;6257;57.634;18.310;2023-02-01T07:18:41;2.07;;;0.67;;
12385;SDS011;6257;57.634;18.310;2023-02-01T07:21:08;1.13;;;0.63;;
12385;SDS011;6257;57.634;18.310;2023-02-01T07:23:36;0.50;;;0.40;;
12385;SDS011;6257;57.634;18.310;2023-02-01T07:26:04;1.03;;;0.50;;
12385;SDS011;6257;57.634;18.310;2023-02-01T07:28:32;1.33;;;0.40;;
12385;SDS011;6257;57.634;18.310;2023-02-01T07:31:04;0.93;;;0.47;;
12385;SDS011;6257;57.634;18.310;2023-02-01T07:33:34;1.23;;;0.60;;
12385;SDS011;6257;57.634;18.310;2023-02-01T07:36:02;0.87;;;0.43;;
12385;SDS011;6257;57.634;18.310;2023-02-01T07:38:31;0.97;;;0.40;;
12385;SDS011;6257;57.634;18.310;2023-02-01T07:40:58;0.77;;;0.40;;
12385;SDS011;6257;57.634;18.310;2023-02-01T07:43:25;0.87;;;0.50;;
12385;SDS011;6257;57.634;18.310;2023-02-01T07:45:53;0.67;;;0.40;;
12385;SDS011;6257;57.634;18.310;2023-02-01T07:48:20;0.77;;;0.40;;
12385;SDS011;6257;57.634;18.310;2023-02-01T07:50:52;1.50;;;0.63;;
12385;SDS011;6257;57.634;18.310;2023-02-01T07:53:24;1.53;;;0.60;;
12385;SDS011;6257;57.634;18.310;2023-02-01T07:55:51;1.17;;;0.70;;
12385;SDS011;6257;57.634;18.310;2023-02-01T07:58:18;3.63;;;1.10;;
12385;SDS011;6257;57.634;18.310;2023-02-01T08:00:45;2.73;;;0.80;;
12385;SDS011;6257;57.634;18.310;2023-02-01T08:03:29;1.10;;;0.40;;
12385;SDS011;6257;57.634;18.310;2023-02-01T08:05:58;0.93;;;0.50;;
12385;SDS011;6257;57.634;18.310;2023-02-01T08:08:25;2.20;;;0.80;;
12385;SDS011;6257;57.634;18.310;2023-02-01T08:10:56;2.23;;;1.03;;
12385;SDS011;6257;57.634;18.310;2023-02-01T08:13:23;2.40;;;0.80;;
12385;SDS011;6257;57.634;18.310;2023-02-01T08:15:50;1.67;;;0.70;;
12385;SDS011;6257;57.634;18.310;2023-02-01T08:18:18;2.10;;;0.80;;
12385;SDS011;6257;57.634;18.310;2023-02-01T08:20:45;1.70;;;0.77;;
12385;SDS011;6257;57.634;18.310;2023-02-01T08:23:14;1.80;;;0.50;;
12385;SDS011;6257;57.634;18.310;2023-02-01T08:25:41;0.80;;;0.47;;
12385;SDS011;6257;57.634;18.310;2023-02-01T08:28:08;1.10;;;0.70;;
12385;SDS011;6257;57.634;18.310;2023-02-01T08:30:36;1.60;;;0.73;;
12385;SDS011;6257;57.634;18.310;2023-02-01T08:33:03;1.63;;;0.57;;
12385;SDS011;6257;57.634;18.310;2023-02-01T08:35:32;2.80;;;0.67;;
12385;SDS011;6257;57.634;18.310;2023-02-01T08:38:01;1.37;;;0.70;;
12385;SDS011;6257;57.634;18.310;2023-02-01T08:40:29;0.90;;;0.50;;
12385;SDS011;6257;57.634;18.310;2023-02-01T08:42:57;1.63;;;0.60;;
12385;SDS011;6257;57.634;18.310;2023-02-01T08:45:26;1.07;;;0.60;;
12385;SDS011;6257;57.634;18.310;2023-02-01T08:47:55;0.93;;;0.40;;
12385;SDS011;6257;57.634;18.310;2023-02-01T08:50:22;1.27;;;0.50;;
12385;SDS011;6257;57.634;18.310;2023-02-01T08:52:50;2.60;;;0.70;;
12385;SDS011;6257;57.634;18.310;2023-02-01T08:55:17;2.40;;;0.77;;
12385;SDS011;6257;57.634;18.310;2023-02-01T08:57:46;2.93;;;0.40;;
12385;SDS011;6257;57.634;18.310;2023-02-01T09:00:13;2.27;;;0.40;;
12385;SDS011;6257;57.634;18.310;2023-02-01T09:02:42;1.90;;;0.40;;
12385;SDS011;6257;57.634;18.310;2023-02-01T09:05:09;1.80;;;0.63;;
12385;SDS011;6257;57.634;18.310;2023-02-01T09:07:37;3.67;;;0.53;;
12385;SDS011;6257;57.634;18.310;2023-02-01T09:10:04;3.33;;;0.80;;
12385;SDS011;6257;57.634;18.310;2023-02-01T09:12:32;3.70;;;0.97;;
12385;SDS011;6257;57.634;18.310;2023-02-01T09:15:01;4.13;;;1.00;;
12385;SDS011;6257;57.634;18.310;2023-02-01T09:17:28;3.60;;;0.70;;
12385;SDS011;6257;57.634;18.310;2023-02-01T09:19:56;4.20;;;0.97;;
12385;SDS011;6257;57.634;18.310;2023-02-01T09:22:23;5.40;;;1.13;;
12385;SDS011;6257;57.634;18.310;2023-02-01T09:24:51;2.10;;;0.80;;
12385;SDS011;6257;57.634;18.310;2023-02-01T09:27:18;5.97;;;1.10;;
12385;SDS011;6257;57.634;18.310;2023-02-01T09:29:46;1.83;;;0.60;;
12385;SDS011;6257;57.634;18.310;2023-02-01T09:32:18;3.10;;;0.73;;
12385;SDS011;6257;57.634;18.310;2023-02-01T09:34:46;0.93;;;0.63;;
12385;SDS011;6257;57.634;18.310;2023-02-01T09:37:13;2.73;;;0.67;;
12385;SDS011;6257;57.634;18.310;2023-02-01T09:39:40;3.57;;;0.93;;
12385;SDS011;6257;57.634;18.310;2023-02-01T09:42:13;5.93;;;0.87;;
12385;SDS011;6257;57.634;18.310;2023-02-01T09:44:54;3.67;;;1.13;;
12385;SDS011;6257;57.634;18.310;2023-02-01T09:47:31;3.43;;;0.80;;
12385;SDS011;6257;57.634;18.310;2023-02-01T09:50:02;4.93;;;1.07;;
12385;SDS011;6257;57.634;18.310;2023-02-01T09:52:34;5.57;;;0.90;;
12385;SDS011;6257;57.634;18.310;2023-02-01T09:55:07;4.93;;;0.90;;
12385;SDS011;6257;57.634;18.310;2023-02-01T09:57:43;3.97;;;0.87;;
12385;SDS011;6257;57.634;18.310;2023-02-01T10:00:17;5.70;;;1.13;;
12385;SDS011;6257;57.634;18.310;2023-02-01T10:02:50;6.90;;;1.17;;
12385;SDS011;6257;57.634;18.310;2023-02-01T10:05:21;4.07;;;1.20;;
12385;SDS011;6257;57.634;18.310;2023-02-01T10:08:00;4.13;;;0.87;;
12385;SDS011;6257;57.634;18.310;2023-02-01T10:10:35;3.23;;;0.77;;
12385;SDS011;6257;57.634;18.310;2023-02-01T10:15:52;2.90;;;0.80;;
12385;SDS011;6257;57.634;18.310;2023-02-01T10:18:43;5.03;;;0.80;;
12385;SDS011;6257;57.634;18.310;2023-02-01T10:21:25;2.93;;;0.90;;
12385;SDS011;6257;57.634;18.310;2023-02-01T10:24:11;6.90;;;1.40;;
12385;SDS011;6257;57.634;18.310;2023-02-01T10:27:08;5.53;;;1.00;;
12385;SDS011;6257;57.634;18.310;2023-02-01T10:29:40;5.13;;;1.17;;
12385;SDS011;6257;57.634;18.310;2023-02-01T10:32:12;3.70;;;1.03;;
12385;SDS011;6257;57.634;18.310;2023-02-01T10:37:16;3.53;;;1.07;;
12385;SDS011;6257;57.634;18.310;2023-02-01T10:39:49;4.30;;;1.10;;
12385;SDS011;6257;57.634;18.310;2023-02-01T10:42:20;4.10;;;1.53;;
12385;SDS011;6257;57.634;18.310;2023-02-01T10:44:50;4.73;;;1.30;;
12385;SDS011;6257;57.634;18.310;2023-02-01T10:47:18;6.37;;;1.20;;
12385;SDS011;6257;57.634;18.310;2023-02-01T10:49:49;3.13;;;0.80;;
12385;SDS011;6257;57.634;18.310;2023-02-01T10:52:23;2.90;;;0.90;;
12385;SDS011;6257;57.634;18.310;2023-02-01T10:55:11;5.93;;;1.30;;
12385;SDS011;6257;57.634;18.310;2023-02-01T10:57:56;3.97;;;1.07;;
12385;SDS011;6257;57.634;18.310;2023-02-01T11:00:25;6.23;;;1.23;;
12385;SDS011;6257;57.634;18.310;2023-02-01T11:02:53;4.07;;;1.10;;
12385;SDS011;6257;57.634;18.310;2023-02-01T11:05:22;5.27;;;0.83;;
12385;SDS011;6257;57.634;18.310;2023-02-01T11:07:53;2.53;;;0.90;;
12385;SDS011;6257;57.634;18.310;2023-02-01T11:10:34;4.37;;;0.90;;
12385;SDS011;6257;57.634;18.310;2023-02-01T11:13:03;3.73;;;1.00;;
12385;SDS011;6257;57.634;18.310;2023-02-01T11:15:31;5.17;;;1.30;;
12385;SDS011;6257;57.634;18.310;2023-02-01T11:18:07;5.87;;;1.27;;
12385;SDS011;6257;57.634;18.310;2023-02-01T11:20:44;4.13;;;1.00;;
12385;SDS011;6257;57.634;18.310;2023-02-01T11:23:14;4.73;;;1.10;;
12385;SDS011;6257;57.634;18.310;2023-02-01T11:25:50;8.63;;;1.10;;
12385;SDS011;6257;57.634;18.310;2023-02-01T11:28:19;4.63;;;1.10;;
12385;SDS011;6257;57.634;18.310;2023-02-01T11:30:49;9.17;;;1.50;;
12385;SDS011;6257;57.634;18.310;2023-02-01T11:33:20;4.90;;;1.10;;
12385;SDS011;6257;57.634;18.310;2023-02-01T11:35:55;4.80;;;1.13;;
12385;SDS011;6257;57.634;18.310;2023-02-01T11:38:26;3.30;;;0.93;;
12385;SDS011;6257;57.634;18.310;2023-02-01T11:40:55;6.53;;;1.23;;
12385;SDS011;6257;57.634;18.310;2023-02-01T11:43:37;4.37;;;1.30;;
12385;SDS011;6257;57.634;18.310;2023-02-01T11:46:17;3.37;;;0.90;;
12385;SDS011;6257;57.634;18.310;2023-02-01T11:48:50;5.03;;;1.30;;
12385;SDS011;6257;57.634;18.310;2023-02-01T11:51:23;2.73;;;0.87;;
12385;SDS011;6257;57.634;18.310;2023-02-01T11:54:08;3.63;;;1.30;;
12385;SDS011;6257;57.634;18.310;2023-02-01T11:56:51;3.23;;;0.90;;
12385;SDS011;6257;57.634;18.310;2023-02-01T11:59:33;3.00;;;0.80;;
12385;SDS011;6257;57.634;18.310;2023-02-01T12:05:25;5.17;;;1.27;;
12385;SDS011;6257;57.634;18.310;2023-02-01T12:08:06;6.17;;;1.77;;
12385;SDS011;6257;57.634;18.310;2023-02-01T12:10:50;4.03;;;1.67;;
12385;SDS011;6257;57.634;18.310;2023-02-01T12:13:29;5.67;;;1.20;;
12385;SDS011;6257;57.634;18.310;2023-02-01T12:16:11;5.37;;;0.93;;
12385;SDS011;6257;57.634;18.310;2023-02-01T12:18:48;3.27;;;0.90;;
12385;SDS011;6257;57.634;18.310;2023-02-01T12:21:32;6.17;;;1.60;;
12385;SDS011;6257;57.634;18.310;2023-02-01T12:24:25;2.87;;;1.00;;
12385;SDS011;6257;57.634;18.310;2023-02-01T12:27:25;2.13;;;0.93;;
12385;SDS011;6257;57.634;18.310;2023-02-01T12:33:10;6.73;;;1.40;;
12385;SDS011;6257;57.634;18.310;2023-02-01T12:35:49;3.93;;;1.20;;
12385;SDS011;6257;57.634;18.310;2023-02-01T12:38:29;5.73;;;1.80;;
12385;SDS011;6257;57.634;18.310;2023-02-01T12:41:37;5.23;;;1.40;;
12385;SDS011;6257;57.634;18.310;2023-02-01T12:44:18;4.33;;;1.10;;
12385;SDS011;6257;57.634;18.310;2023-02-01T12:47:12;3.27;;;0.80;;
12385;SDS011;6257;57.634;18.310;2023-02-01T12:49:45;4.17;;;0.80;;
12385;SDS011;6257;57.634;18.310;2023-02-01T12:52:18;1.93;;;0.70;;
12385;SDS011;6257;57.634;18.310;2023-02-01T12:54:50;2.03;;;0.37;;
12385;SDS011;6257;57.634;18.310;2023-02-01T12:57:26;2.40;;;0.60;;
12385;SDS011;6257;57.634;18.310;2023-02-01T12:59:59;3.90;;;0.80;;
12385;SDS011;6257;57.634;18.310;2023-02-01T13:02:35;1.83;;;0.87;;
12385;SDS011;6257;57.634;18.310;2023-02-01T13:05:12;4.23;;;1.00;;
12385;SDS011;6257;57.634;18.310;2023-02-01T13:07:44;2.63;;;0.93;;
12385;SDS011;6257;57.634;18.310;2023-02-01T13:10:15;2.00;;;0.60;;
12385;SDS011;6257;57.634;18.310;2023-02-01T13:12:50;3.77;;;0.90;;
12385;SDS011;6257;57.634;18.310;2023-02-01T13:15:21;3.00;;;0.90;;
12385;SDS011;6257;57.634;18.310;2023-02-01T13:17:52;3.70;;;1.40;;
12385;SDS011;6257;57.634;18.310;2023-02-01T13:20:25;6.07;;;1.60;;
12385;SDS011;6257;57.634;18.310;2023-02-01T13:22:58;7.33;;;1.70;;
12385;SDS011;6257;57.634;18.310;2023-02-01T13:25:30;5.33;;;1.40;;
12385;SDS011;6257;57.634;18.310;2023-02-01T13:28:03;6.13;;;1.00;;
12385;SDS011;6257;57.634;18.310;2023-02-01T13:30:39;4.50;;;1.03;;
12385;SDS011;6257;57.634;18.310;2023-02-01T13:39:24;8.70;;;1.23;;
12385;SDS011;6257;57.634;18.310;2023-02-01T13:42:11;5.40;;;1.70;;
12385;SDS011;6257;57.634;18.310;2023-02-01T13:44:44;8.90;;;2.10;;
12385;SDS011;6257;57.634;18.310;2023-02-01T13:47:18;8.60;;;1.90;;
12385;SDS011;6257;57.634;18.310;2023-02-01T13:49:49;8.43;;;1.80;;
12385;SDS011;6257;57.634;18.310;2023-02-01T13:52:24;6.00;;;1.30;;
12385;SDS011;6257;57.634;18.310;2023-02-01T13:58:10;4.10;;;1.50;;
12385;SDS011;6257;57.634;18.310;2023-02-01T14:00:45;6.43;;;1.63;;
12385;SDS011;6257;57.634;18.310;2023-02-01T14:03:15;7.60;;;1.77;;
12385;SDS011;6257;57.634;18.310;2023-02-01T14:12:41;6.27;;;1.70;;
12385;SDS011;6257;57.634;18.310;2023-02-01T14:15:22;8.07;;;1.70;;
12385;SDS011;6257;57.634;18.310;2023-02-01T14:17:52;6.40;;;1.43;;
12385;SDS011;6257;57.634;18.310;2023-02-01T14:23:23;6.30;;;1.50;;
12385;SDS011;6257;57.634;18.310;2023-02-01T14:26:13;6.23;;;1.63;;
12385;SDS011;6257;57.634;18.310;2023-02-01T14:28:52;5.50;;;1.70;;
12385;SDS011;6257;57.634;18.310;2023-02-01T14:31:31;6.37;;;1.50;;
12385;SDS011;6257;57.634;18.310;2023-02-01T14:34:16;8.37;;;1.57;;
12385;SDS011;6257;57.634;18.310;2023-02-01T14:36:49;7.00;;;1.93;;
12385;SDS011;6257;57.634;18.310;2023-02-01T14:39:23;6.17;;;1.73;;
12385;SDS011;6257;57.634;18.310;2023-02-01T14:41:54;10.63;;;1.70;;
12385;SDS011;6257;57.634;18.310;2023-02-01T14:44:25;7.43;;;1.53;;
12385;SDS011;6257;57.634;18.310;2023-02-01T14:50:07;7.73;;;1.93;;
12385;SDS011;6257;57.634;18.310;2023-02-01T14:53:04;4.03;;;1.37;;
12385;SDS011;6257;57.634;18.310;2023-02-01T14:55:44;4.97;;;1.40;;
12385;SDS011;6257;57.634;18.310;2023-02-01T14:58:16;7.60;;;1.40;;
12385;SDS011;6257;57.634;18.310;2023-02-01T15:00:47;5.80;;;1.30;;
12385;SDS011;6257;57.634;18.310;2023-02-01T15:03:21;7.50;;;1.43;;
12385;SDS011;6257;57.634;18.310;2023-02-01T15:05:59;6.13;;;1.50;;
12385;SDS011;6257;57.634;18.310;2023-02-01T15:08:30;8.87;;;2.33;;
12385;SDS011;6257;57.634;18.310;2023-02-01T15:11:00;6.60;;;1.90;;
12385;SDS011;6257;57.634;18.310;2023-02-01T15:13:32;7.23;;;1.60;;
12385;SDS011;6257;57.634;18.310;2023-02-01T15:16:00;4.03;;;1.50;;
12385;SDS011;6257;57.634;18.310;2023-02-01T15:18:31;6.40;;;1.53;;
12385;SDS011;6257;57.634;18.310;2023-02-01T15:21:00;5.93;;;1.80;;
12385;SDS011;6257;57.634;18.310;2023-02-01T15:23:29;6.10;;;2.10;;
12385;SDS011;6257;57.634;18.310;2023-02-01T15:25:56;3.53;;;1.50;;
12385;SDS011;6257;57.634;18.310;2023-02-01T15:28:24;4.17;;;1.23;;
12385;SDS011;6257;57.634;18.310;2023-02-01T15:30:52;5.83;;;1.80;;
12385;SDS011;6257;57.634;18.310;2023-02-01T15:33:21;6.37;;;1.40;;
12385;SDS011;6257;57.634;18.310;2023-02-01T15:35:49;8.47;;;1.60;;
12385;SDS011;6257;57.634;18.310;2023-02-01T15:38:20;7.87;;;1.87;;
12385;SDS011;6257;57.634;18.310;2023-02-01T15:40:57;5.93;;;2.10;;
12385;SDS011;6257;57.634;18.310;2023-02-01T15:43:26;10.77;;;2.20;;
12385;SDS011;6257;57.634;18.310;2023-02-01T15:45:55;5.10;;;1.80;;
12385;SDS011;6257;57.634;18.310;2023-02-01T15:48:23;9.47;;;1.77;;
12385;SDS011;6257;57.634;18.310;2023-02-01T15:50:53;8.03;;;2.23;;
12385;SDS011;6257;57.634;18.310;2023-02-01T15:53:24;6.87;;;3.03;;
12385;SDS011;6257;57.634;18.310;2023-02-01T15:55:56;16.27;;;7.13;;